Seattle, Washington
Current Conditions -  °F | °C
As of 5:53 AM on Wednesday 28 Jan 2015 (Local Time) from KBFI Reporting Station
Overcast Overcast  
Wind Chill: 48°   Ceiling: 4100
Heat Index: 48°   Visibility: 10mi
Dew Point: 43°   Wind: 3mph
Humidity: 83%   Direction: 40°NE
Pressure: 30.35"   Gusts: NA
Location:  47.6°N, 122.32°W
Report Text: KBFI 281353Z 04003KT 10SM SCT021 OVC041 09/06 A3035 RMK AO2 SLP277 T00890061
Loading
Personal Weather Stations






























Interactive Weather Map New forecast layout! Learn more

10-Day Weather Forecast

Advertisements
Track Severe Weather on mobile